Lake Orion, MI (48362)

5:12 AM EST on January 24, 2017 (GMT -0500)
Glanworth Street | | Change Station

Elev 994 ft 42.77 °N, 83.23 °W | Updated 56 seconds ago

Overcast
Overcast
36.5 °F
Feels Like 36 °F
N
0.0
Wind Variable Wind from North
Gusts 1.2 mph

Today
High -- | Low -- °F
--% Chance of Precip.
Yesterday
High -- | Low -- °F
Precip. -- in
Pressure 29.71 in
Visibility 0.5 miles
Clouds
Windchill 36 °F
Dew Point 36 °F
Humidity 100%
Rainfall 0.00 in
Snow Depth Not available.
7:54 AM 5:36 PM
Waning Crescent, 12% visible
METAR KPTK 240953Z AUTO 32003KT 1/2SM R09R/2400V3500FT FG VV003 03/02 A2969 RMK AO2 SLP060 T00280017
Pressure 29.71 in
Visibility 0.5 miles
Clouds
Windchill 36 °F
Dew Point 36 °F
Humidity 100%
Rainfall 0.00 in
Snow Depth Not available.
7:54 AM 5:36 PM
Waning Crescent, 12% visible
METAR KPTK 240953Z AUTO 32003KT 1/2SM R09R/2400V3500FT FG VV003 03/02 A2969 RMK AO2 SLP060 T00280017

Get Your Daily Forecast Email!

Thanks for signing up!

Be on the lookout for a verification email in your inbox.

You'll start receiving the daily forecast at 8 AM.

×

10-Day Weather Forecast

Almanac

Astronomy

Jan. 24, 2017 Rise Set
Actual Time
Civil Twilight
Nautical Twilight
Astronomical Twilight
Moon
Length of Visible Light
Length of Day
Tomorrow will be .
, % of the Moon is Illuminated

Today's Extremes

State Highs State Lows

Community

WunderPhotos

Upload Photos

1,962,540 photos uploaded!

WunderBlog® & News

Nearby

Air Quality

  Air Quality AQ Index Pollutant
Not available.

Snow Depth

Station Depth Elevation

Earthquake Activity

City Distance Mag. Time & Date
Minimum magnitude displayed is 2.5.

Coastal Water Temperatures

Place Temperature

Stations

Nearby Weather Stations

Station Location Temp. Windchill Dew Point Humidity Wind Precip. Elev Updated Type
                   

Watches & Warnings

There are currently no watches in effect.